sensor_id;sensor_type;location;lat;lon;timestamp;P1;durP1;ratioP1;P2;durP2;ratioP2
62475;SDS011;50739;45.670;11.936;2022-09-09T00:03:53;5.97;;;4.63;;
62475;SDS011;50739;45.670;11.936;2022-09-09T00:09:00;6.80;;;4.20;;
62475;SDS011;50739;45.670;11.936;2022-09-09T00:14:09;9.17;;;4.70;;
62475;SDS011;50739;45.670;11.936;2022-09-09T00:19:19;8.85;;;4.72;;
62475;SDS011;50739;45.670;11.936;2022-09-09T00:24:26;6.23;;;4.37;;
62475;SDS011;50739;45.670;11.936;2022-09-09T00:29:35;9.88;;;4.55;;
62475;SDS011;50739;45.670;11.936;2022-09-09T00:34:46;6.75;;;4.18;;
62475;SDS011;50739;45.670;11.936;2022-09-09T00:39:50;7.78;;;4.57;;
62475;SDS011;50739;45.670;11.936;2022-09-09T00:44:58;6.05;;;4.47;;
62475;SDS011;50739;45.670;11.936;2022-09-09T00:50:10;6.65;;;4.20;;
62475;SDS011;50739;45.670;11.936;2022-09-09T00:55:19;6.85;;;4.20;;
62475;SDS011;50739;45.670;11.936;2022-09-09T01:00:30;5.43;;;4.22;;
62475;SDS011;50739;45.670;11.936;2022-09-09T01:05:38;7.17;;;3.83;;
62475;SDS011;50739;45.670;11.936;2022-09-09T01:10:47;4.78;;;3.95;;
62475;SDS011;50739;45.670;11.936;2022-09-09T01:15:54;4.70;;;3.83;;
62475;SDS011;50739;45.670;11.936;2022-09-09T01:21:00;5.05;;;3.42;;
62475;SDS011;50739;45.670;11.936;2022-09-09T01:26:12;6.33;;;3.50;;
62475;SDS011;50739;45.670;11.936;2022-09-09T01:31:20;7.40;;;3.53;;
62475;SDS011;50739;45.670;11.936;2022-09-09T01:36:26;6.63;;;3.63;;
62475;SDS011;50739;45.670;11.936;2022-09-09T01:41:35;4.97;;;3.70;;
62475;SDS011;50739;45.670;11.936;2022-09-09T01:46:37;5.70;;;3.53;;
62475;SDS011;50739;45.670;11.936;2022-09-09T01:51:39;5.93;;;3.90;;
62475;SDS011;50739;45.670;11.936;2022-09-09T01:56:49;5.37;;;3.37;;
62475;SDS011;50739;45.670;11.936;2022-09-09T02:01:59;3.70;;;3.10;;
62475;SDS011;50739;45.670;11.936;2022-09-09T02:07:14;6.57;;;3.30;;
62475;SDS011;50739;45.670;11.936;2022-09-09T02:12:28;4.67;;;3.23;;
62475;SDS011;50739;45.670;11.936;2022-09-09T02:17:33;4.53;;;3.10;;
62475;SDS011;50739;45.670;11.936;2022-09-09T02:22:37;4.95;;;3.25;;
62475;SDS011;50739;45.670;11.936;2022-09-09T02:27:43;5.40;;;3.30;;
62475;SDS011;50739;45.670;11.936;2022-09-09T02:32:47;4.47;;;3.10;;
62475;SDS011;50739;45.670;11.936;2022-09-09T02:37:53;6.68;;;3.38;;
62475;SDS011;50739;45.670;11.936;2022-09-09T02:43:00;5.15;;;2.80;;
62475;SDS011;50739;45.670;11.936;2022-09-09T02:48:03;4.50;;;2.80;;
62475;SDS011;50739;45.670;11.936;2022-09-09T02:53:12;4.20;;;2.47;;
62475;SDS011;50739;45.670;11.936;2022-09-09T02:58:19;4.20;;;2.30;;
62475;SDS011;50739;45.670;11.936;2022-09-09T03:03:21;5.40;;;2.67;;
62475;SDS011;50739;45.670;11.936;2022-09-09T03:08:23;4.90;;;2.55;;
62475;SDS011;50739;45.670;11.936;2022-09-09T03:13:28;4.78;;;2.33;;
62475;SDS011;50739;45.670;11.936;2022-09-09T03:18:30;4.33;;;2.70;;
62475;SDS011;50739;45.670;11.936;2022-09-09T03:23:34;4.40;;;2.60;;
62475;SDS011;50739;45.670;11.936;2022-09-09T03:28:37;5.90;;;2.57;;
62475;SDS011;50739;45.670;11.936;2022-09-09T03:33:39;4.72;;;2.67;;
62475;SDS011;50739;45.670;11.936;2022-09-09T03:38:42;4.78;;;2.60;;
62475;SDS011;50739;45.670;11.936;2022-09-09T03:43:45;4.25;;;2.55;;
62475;SDS011;50739;45.670;11.936;2022-09-09T03:48:47;3.08;;;2.67;;
62475;SDS011;50739;45.670;11.936;2022-09-09T03:53:49;4.90;;;2.60;;
62475;SDS011;50739;45.670;11.936;2022-09-09T03:58:52;4.47;;;2.67;;
62475;SDS011;50739;45.670;11.936;2022-09-09T04:03:54;4.07;;;2.60;;
62475;SDS011;50739;45.670;11.936;2022-09-09T04:08:58;4.68;;;2.47;;
62475;SDS011;50739;45.670;11.936;2022-09-09T04:14:03;3.15;;;2.58;;
62475;SDS011;50739;45.670;11.936;2022-09-09T04:19:06;4.75;;;2.60;;
62475;SDS011;50739;45.670;11.936;2022-09-09T04:24:08;4.25;;;2.45;;
62475;SDS011;50739;45.670;11.936;2022-09-09T04:29:11;3.75;;;2.88;;
62475;SDS011;50739;45.670;11.936;2022-09-09T04:34:13;5.70;;;2.70;;
62475;SDS011;50739;45.670;11.936;2022-09-09T04:39:15;7.10;;;2.85;;
62475;SDS011;50739;45.670;11.936;2022-09-09T04:44:18;4.72;;;3.00;;
62475;SDS011;50739;45.670;11.936;2022-09-09T04:49:20;4.27;;;2.90;;
62475;SDS011;50739;45.670;11.936;2022-09-09T04:54:22;6.47;;;3.30;;
62475;SDS011;50739;45.670;11.936;2022-09-09T04:59:25;6.37;;;2.90;;
62475;SDS011;50739;45.670;11.936;2022-09-09T05:04:27;4.78;;;2.70;;
62475;SDS011;50739;45.670;11.936;2022-09-09T05:09:29;3.90;;;3.10;;
62475;SDS011;50739;45.670;11.936;2022-09-09T05:14:32;5.10;;;3.00;;
62475;SDS011;50739;45.670;11.936;2022-09-09T05:19:36;6.03;;;3.13;;
62475;SDS011;50739;45.670;11.936;2022-09-09T05:24:38;4.35;;;3.17;;
62475;SDS011;50739;45.670;11.936;2022-09-09T05:29:41;4.97;;;3.30;;
62475;SDS011;50739;45.670;11.936;2022-09-09T05:34:44;7.10;;;3.20;;
62475;SDS011;50739;45.670;11.936;2022-09-09T05:39:46;3.47;;;2.78;;
62475;SDS011;50739;45.670;11.936;2022-09-09T05:44:50;4.65;;;2.92;;
62475;SDS011;50739;45.670;11.936;2022-09-09T05:49:54;4.15;;;2.97;;
62475;SDS011;50739;45.670;11.936;2022-09-09T05:54:56;6.80;;;3.17;;
62475;SDS011;50739;45.670;11.936;2022-09-09T06:00:00;6.18;;;3.20;;
62475;SDS011;50739;45.670;11.936;2022-09-09T06:05:03;5.18;;;3.35;;
62475;SDS011;50739;45.670;11.936;2022-09-09T06:10:06;6.53;;;2.97;;
62475;SDS011;50739;45.670;11.936;2022-09-09T06:15:10;5.22;;;3.08;;
62475;SDS011;50739;45.670;11.936;2022-09-09T06:20:11;6.63;;;3.03;;
62475;SDS011;50739;45.670;11.936;2022-09-09T06:25:14;5.18;;;2.67;;
62475;SDS011;50739;45.670;11.936;2022-09-09T06:30:17;4.03;;;2.47;;
62475;SDS011;50739;45.670;11.936;2022-09-09T06:35:19;4.13;;;3.00;;
62475;SDS011;50739;45.670;11.936;2022-09-09T06:40:21;6.30;;;3.05;;
62475;SDS011;50739;45.670;11.936;2022-09-09T06:45:24;6.22;;;2.75;;
62475;SDS011;50739;45.670;11.936;2022-09-09T06:50:26;6.60;;;2.80;;
62475;SDS011;50739;45.670;11.936;2022-09-09T06:55:27;5.27;;;2.60;;
62475;SDS011;50739;45.670;11.936;2022-09-09T07:00:31;6.22;;;2.60;;
62475;SDS011;50739;45.670;11.936;2022-09-09T07:05:33;5.50;;;3.00;;
62475;SDS011;50739;45.670;11.936;2022-09-09T07:10:35;5.00;;;3.30;;
62475;SDS011;50739;45.670;11.936;2022-09-09T07:15:38;5.78;;;2.80;;
62475;SDS011;50739;45.670;11.936;2022-09-09T07:20:40;6.17;;;2.83;;
62475;SDS011;50739;45.670;11.936;2022-09-09T07:25:44;5.25;;;2.50;;
62475;SDS011;50739;45.670;11.936;2022-09-09T07:30:54;3.83;;;2.40;;
62475;SDS011;50739;45.670;11.936;2022-09-09T07:36:01;6.50;;;2.50;;
62475;SDS011;50739;45.670;11.936;2022-09-09T07:41:05;4.25;;;2.45;;
62475;SDS011;50739;45.670;11.936;2022-09-09T07:46:14;3.88;;;2.55;;
62475;SDS011;50739;45.670;11.936;2022-09-09T07:51:18;4.38;;;2.80;;
62475;SDS011;50739;45.670;11.936;2022-09-09T07:56:22;5.30;;;2.40;;
62475;SDS011;50739;45.670;11.936;2022-09-09T08:01:26;4.45;;;2.47;;
62475;SDS011;50739;45.670;11.936;2022-09-09T08:06:29;11.45;;;2.78;;
62475;SDS011;50739;45.670;11.936;2022-09-09T08:11:33;8.55;;;2.85;;
62475;SDS011;50739;45.670;11.936;2022-09-09T08:16:38;5.57;;;2.28;;
62475;SDS011;50739;45.670;11.936;2022-09-09T08:21:41;3.17;;;1.90;;
62475;SDS011;50739;45.670;11.936;2022-09-09T08:26:45;3.60;;;2.10;;
62475;SDS011;50739;45.670;11.936;2022-09-09T08:31:51;6.80;;;2.05;;
62475;SDS011;50739;45.670;11.936;2022-09-09T08:36:54;3.58;;;2.10;;
62475;SDS011;50739;45.670;11.936;2022-09-09T08:41:59;3.95;;;1.90;;
62475;SDS011;50739;45.670;11.936;2022-09-09T08:47:31;6.45;;;2.03;;
62475;SDS011;50739;45.670;11.936;2022-09-09T08:52:42;4.18;;;2.25;;
62475;SDS011;50739;45.670;11.936;2022-09-09T08:57:55;12.17;;;2.60;;
62475;SDS011;50739;45.670;11.936;2022-09-09T09:03:04;4.93;;;1.88;;
62475;SDS011;50739;45.670;11.936;2022-09-09T09:08:11;3.53;;;2.17;;
62475;SDS011;50739;45.670;11.936;2022-09-09T09:13:19;3.50;;;1.77;;
62475;SDS011;50739;45.670;11.936;2022-09-09T09:18:27;2.90;;;1.70;;
62475;SDS011;50739;45.670;11.936;2022-09-09T09:23:31;2.45;;;1.80;;
62475;SDS011;50739;45.670;11.936;2022-09-09T09:28:39;3.83;;;1.70;;
62475;SDS011;50739;45.670;11.936;2022-09-09T09:33:45;2.47;;;1.60;;
62475;SDS011;50739;45.670;11.936;2022-09-09T09:38:53;3.55;;;1.75;;
62475;SDS011;50739;45.670;11.936;2022-09-09T09:43:56;3.03;;;1.80;;
62475;SDS011;50739;45.670;11.936;2022-09-09T09:49:02;3.10;;;2.17;;
62475;SDS011;50739;45.670;11.936;2022-09-09T09:54:07;3.42;;;1.67;;
62475;SDS011;50739;45.670;11.936;2022-09-09T09:59:22;4.60;;;2.17;;
62475;SDS011;50739;45.670;11.936;2022-09-09T10:04:35;4.23;;;1.60;;
62475;SDS011;50739;45.670;11.936;2022-09-09T10:09:36;3.13;;;1.95;;
62475;SDS011;50739;45.670;11.936;2022-09-09T10:14:40;5.20;;;1.83;;
62475;SDS011;50739;45.670;11.936;2022-09-09T10:19:53;3.58;;;1.52;;
62475;SDS011;50739;45.670;11.936;2022-09-09T10:25:12;2.80;;;1.92;;
62475;SDS011;50739;45.670;11.936;2022-09-09T10:30:35;4.00;;;1.90;;
62475;SDS011;50739;45.670;11.936;2022-09-09T10:35:47;4.03;;;1.87;;
62475;SDS011;50739;45.670;11.936;2022-09-09T10:41:06;5.65;;;2.00;;
62475;SDS011;50739;45.670;11.936;2022-09-09T10:46:18;3.42;;;1.98;;
62475;SDS011;50739;45.670;11.936;2022-09-09T10:51:28;4.63;;;2.08;;
62475;SDS011;50739;45.670;11.936;2022-09-09T10:56:35;2.67;;;2.00;;
62475;SDS011;50739;45.670;11.936;2022-09-09T11:01:40;4.10;;;2.13;;
62475;SDS011;50739;45.670;11.936;2022-09-09T11:06:49;3.10;;;1.80;;
62475;SDS011;50739;45.670;11.936;2022-09-09T11:11:55;3.17;;;2.10;;
62475;SDS011;50739;45.670;11.936;2022-09-09T11:16:59;4.13;;;2.05;;
62475;SDS011;50739;45.670;11.936;2022-09-09T11:22:05;5.07;;;2.03;;
62475;SDS011;50739;45.670;11.936;2022-09-09T11:27:15;5.20;;;2.00;;
62475;SDS011;50739;45.670;11.936;2022-09-09T11:32:28;3.53;;;2.00;;
62475;SDS011;50739;45.670;11.936;2022-09-09T11:37:57;7.72;;;2.20;;
62475;SDS011;50739;45.670;11.936;2022-09-09T11:43:13;5.63;;;2.07;;
62475;SDS011;50739;45.670;11.936;2022-09-09T11:48:25;4.75;;;1.92;;
62475;SDS011;50739;45.670;11.936;2022-09-09T11:53:32;3.47;;;2.20;;
62475;SDS011;50739;45.670;11.936;2022-09-09T11:58:36;4.63;;;2.20;;
62475;SDS011;50739;45.670;11.936;2022-09-09T12:03:41;6.55;;;2.20;;
62475;SDS011;50739;45.670;11.936;2022-09-09T12:08:48;5.72;;;2.33;;
62475;SDS011;50739;45.670;11.936;2022-09-09T12:13:53;4.25;;;2.40;;
62475;SDS011;50739;45.670;11.936;2022-09-09T12:19:04;5.10;;;2.25;;
62475;SDS011;50739;45.670;11.936;2022-09-09T12:24:10;3.67;;;2.08;;
62475;SDS011;50739;45.670;11.936;2022-09-09T12:29:18;5.63;;;2.33;;
62475;SDS011;50739;45.670;11.936;2022-09-09T12:34:31;7.72;;;2.38;;
62475;SDS011;50739;45.670;11.936;2022-09-09T12:39:41;5.03;;;2.22;;
62475;SDS011;50739;45.670;11.936;2022-09-09T12:44:53;4.38;;;2.13;;
62475;SDS011;50739;45.670;11.936;2022-09-09T12:49:56;3.17;;;2.25;;
62475;SDS011;50739;45.670;11.936;2022-09-09T12:55:01;3.13;;;2.35;;
62475;SDS011;50739;45.670;11.936;2022-09-09T13:00:12;4.10;;;1.48;;
62475;SDS011;50739;45.670;11.936;2022-09-09T13:05:18;4.00;;;1.13;;
62475;SDS011;50739;45.670;11.936;2022-09-09T13:10:25;3.65;;;1.38;;
62475;SDS011;50739;45.670;11.936;2022-09-09T13:15:29;6.47;;;1.40;;
62475;SDS011;50739;45.670;11.936;2022-09-09T13:20:31;3.33;;;1.30;;
62475;SDS011;50739;45.670;11.936;2022-09-09T13:25:34;3.72;;;1.33;;
62475;SDS011;50739;45.670;11.936;2022-09-09T13:30:36;4.50;;;1.67;;
62475;SDS011;50739;45.670;11.936;2022-09-09T13:35:45;4.07;;;1.75;;
62475;SDS011;50739;45.670;11.936;2022-09-09T13:40:53;3.63;;;1.80;;
62475;SDS011;50739;45.670;11.936;2022-09-09T13:45:58;3.25;;;2.20;;
62475;SDS011;50739;45.670;11.936;2022-09-09T13:51:01;3.72;;;2.00;;
62475;SDS011;50739;45.670;11.936;2022-09-09T13:56:07;5.15;;;2.50;;
62475;SDS011;50739;45.670;11.936;2022-09-09T14:01:09;2.83;;;1.73;;
62475;SDS011;50739;45.670;11.936;2022-09-09T14:06:11;2.17;;;1.70;;
62475;SDS011;50739;45.670;11.936;2022-09-09T14:11:15;3.17;;;1.80;;
62475;SDS011;50739;45.670;11.936;2022-09-09T14:16:17;3.60;;;1.60;;
62475;SDS011;50739;45.670;11.936;2022-09-09T14:21:20;4.68;;;1.77;;
62475;SDS011;50739;45.670;11.936;2022-09-09T14:26:23;2.88;;;1.63;;
62475;SDS011;50739;45.670;11.936;2022-09-09T14:31:26;3.28;;;1.73;;
62475;SDS011;50739;45.670;11.936;2022-09-09T14:36:28;3.95;;;1.83;;
62475;SDS011;50739;45.670;11.936;2022-09-09T14:41:31;2.90;;;1.70;;
62475;SDS011;50739;45.670;11.936;2022-09-09T14:46:33;2.30;;;1.50;;
62475;SDS011;50739;45.670;11.936;2022-09-09T14:51:35;2.53;;;1.33;;
62475;SDS011;50739;45.670;11.936;2022-09-09T14:56:39;2.03;;;1.10;;
62475;SDS011;50739;45.670;11.936;2022-09-09T15:01:40;1.83;;;1.23;;
62475;SDS011;50739;45.670;11.936;2022-09-09T15:06:42;2.30;;;1.10;;
62475;SDS011;50739;45.670;11.936;2022-09-09T15:11:48;2.25;;;1.10;;
62475;SDS011;50739;45.670;11.936;2022-09-09T15:16:50;3.10;;;1.30;;
62475;SDS011;50739;45.670;11.936;2022-09-09T15:21:52;2.83;;;1.10;;
62475;SDS011;50739;45.670;11.936;2022-09-09T15:26:55;3.38;;;1.50;;
62475;SDS011;50739;45.670;11.936;2022-09-09T15:31:57;2.72;;;1.75;;
62475;SDS011;50739;45.670;11.936;2022-09-09T15:36:59;3.75;;;1.55;;
62475;SDS011;50739;45.670;11.936;2022-09-09T15:42:02;2.45;;;1.42;;
62475;SDS011;50739;45.670;11.936;2022-09-09T15:47:04;3.03;;;1.77;;
62475;SDS011;50739;45.670;11.936;2022-09-09T15:52:08;3.05;;;1.75;;
62475;SDS011;50739;45.670;11.936;2022-09-09T15:57:14;2.95;;;1.38;;
62475;SDS011;50739;45.670;11.936;2022-09-09T16:02:16;3.70;;;1.23;;
62475;SDS011;50739;45.670;11.936;2022-09-09T16:07:18;1.30;;;0.93;;
62475;SDS011;50739;45.670;11.936;2022-09-09T16:12:22;2.33;;;1.20;;
62475;SDS011;50739;45.670;11.936;2022-09-09T16:17:23;1.80;;;1.30;;
62475;SDS011;50739;45.670;11.936;2022-09-09T16:22:25;2.10;;;1.20;;
62475;SDS011;50739;45.670;11.936;2022-09-09T16:27:28;1.60;;;1.10;;
62475;SDS011;50739;45.670;11.936;2022-09-09T16:32:30;1.83;;;1.35;;
62475;SDS011;50739;45.670;11.936;2022-09-09T16:37:32;2.30;;;1.30;;
62475;SDS011;50739;45.670;11.936;2022-09-09T16:42:35;1.88;;;0.98;;
62475;SDS011;50739;45.670;11.936;2022-09-09T16:47:37;1.52;;;1.10;;
62475;SDS011;50739;45.670;11.936;2022-09-09T16:52:39;1.98;;;1.27;;
62475;SDS011;50739;45.670;11.936;2022-09-09T16:57:42;1.50;;;1.20;;
62475;SDS011;50739;45.670;11.936;2022-09-09T17:02:44;3.50;;;1.40;;
62475;SDS011;50739;45.670;11.936;2022-09-09T17:07:46;2.05;;;1.40;;
62475;SDS011;50739;45.670;11.936;2022-09-09T17:12:49;2.53;;;1.70;;
62475;SDS011;50739;45.670;11.936;2022-09-09T17:17:51;1.88;;;1.45;;
62475;SDS011;50739;45.670;11.936;2022-09-09T17:22:54;3.15;;;1.35;;
62475;SDS011;50739;45.670;11.936;2022-09-09T17:27:57;3.13;;;1.80;;
62475;SDS011;50739;45.670;11.936;2022-09-09T17:32:59;2.30;;;1.33;;
62475;SDS011;50739;45.670;11.936;2022-09-09T17:38:01;3.35;;;1.90;;
62475;SDS011;50739;45.670;11.936;2022-09-09T17:43:04;6.90;;;2.03;;
62475;SDS011;50739;45.670;11.936;2022-09-09T17:48:07;3.77;;;2.20;;
62475;SDS011;50739;45.670;11.936;2022-09-09T17:53:10;3.03;;;2.20;;
62475;SDS011;50739;45.670;11.936;2022-09-09T17:58:13;3.60;;;2.55;;
62475;SDS011;50739;45.670;11.936;2022-09-09T18:03:15;3.80;;;1.98;;
62475;SDS011;50739;45.670;11.936;2022-09-09T18:08:17;2.10;;;1.90;;
62475;SDS011;50739;45.670;11.936;2022-09-09T18:13:20;4.03;;;2.40;;
62475;SDS011;50739;45.670;11.936;2022-09-09T18:18:22;3.03;;;2.70;;
62475;SDS011;50739;45.670;11.936;2022-09-09T18:23:24;4.47;;;2.67;;
62475;SDS011;50739;45.670;11.936;2022-09-09T18:28:27;4.78;;;3.40;;
62475;SDS011;50739;45.670;11.936;2022-09-09T18:33:29;7.20;;;4.10;;
62475;SDS011;50739;45.670;11.936;2022-09-09T18:38:31;3.55;;;3.10;;
62475;SDS011;50739;45.670;11.936;2022-09-09T18:43:36;2.78;;;2.20;;
62475;SDS011;50739;45.670;11.936;2022-09-09T18:48:38;3.67;;;2.60;;
62475;SDS011;50739;45.670;11.936;2022-09-09T18:53:40;3.55;;;3.10;;
62475;SDS011;50739;45.670;11.936;2022-09-09T18:58:43;5.85;;;3.08;;
62475;SDS011;50739;45.670;11.936;2022-09-09T19:03:47;4.80;;;3.63;;
62475;SDS011;50739;45.670;11.936;2022-09-09T19:08:50;6.17;;;3.27;;
62475;SDS011;50739;45.670;11.936;2022-09-09T19:13:57;4.88;;;3.20;;
62475;SDS011;50739;45.670;11.936;2022-09-09T19:19:01;4.27;;;2.80;;
62475;SDS011;50739;45.670;11.936;2022-09-09T19:24:06;4.43;;;2.90;;
62475;SDS011;50739;45.670;11.936;2022-09-09T19:29:13;3.38;;;2.88;;
62475;SDS011;50739;45.670;11.936;2022-09-09T19:34:16;4.75;;;2.90;;
62475;SDS011;50739;45.670;11.936;2022-09-09T19:39:19;4.33;;;2.90;;
62475;SDS011;50739;45.670;11.936;2022-09-09T19:44:23;3.83;;;3.00;;
62475;SDS011;50739;45.670;11.936;2022-09-09T19:49:24;3.60;;;2.80;;
62475;SDS011;50739;45.670;11.936;2022-09-09T19:54:26;3.22;;;2.80;;
62475;SDS011;50739;45.670;11.936;2022-09-09T19:59:29;4.22;;;3.08;;
62475;SDS011;50739;45.670;11.936;2022-09-09T20:04:31;4.45;;;2.50;;
62475;SDS011;50739;45.670;11.936;2022-09-09T20:09:34;3.20;;;2.90;;
62475;SDS011;50739;45.670;11.936;2022-09-09T20:14:37;5.00;;;2.30;;
62475;SDS011;50739;45.670;11.936;2022-09-09T20:19:39;3.23;;;2.40;;
62475;SDS011;50739;45.670;11.936;2022-09-09T20:24:41;3.00;;;2.10;;
62475;SDS011;50739;45.670;11.936;2022-09-09T20:29:44;3.85;;;1.90;;
62475;SDS011;50739;45.670;11.936;2022-09-09T20:34:46;3.70;;;1.90;;
62475;SDS011;50739;45.670;11.936;2022-09-09T20:39:48;3.65;;;1.90;;
62475;SDS011;50739;45.670;11.936;2022-09-09T20:44:51;2.25;;;1.60;;
62475;SDS011;50739;45.670;11.936;2022-09-09T20:49:53;2.65;;;1.52;;
62475;SDS011;50739;45.670;11.936;2022-09-09T20:54:54;3.17;;;1.63;;
62475;SDS011;50739;45.670;11.936;2022-09-09T20:59:58;10.35;;;5.35;;
62475;SDS011;50739;45.670;11.936;2022-09-09T21:04:59;4.10;;;1.80;;
62475;SDS011;50739;45.670;11.936;2022-09-09T21:10:01;2.20;;;1.20;;
62475;SDS011;50739;45.670;11.936;2022-09-09T21:15:05;1.48;;;0.95;;
62475;SDS011;50739;45.670;11.936;2022-09-09T21:20:08;1.95;;;0.80;;
62475;SDS011;50739;45.670;11.936;2022-09-09T21:25:10;2.20;;;0.70;;
62475;SDS011;50739;45.670;11.936;2022-09-09T21:30:14;1.08;;;0.60;;
62475;SDS011;50739;45.670;11.936;2022-09-09T21:35:15;0.93;;;0.60;;
62475;SDS011;50739;45.670;11.936;2022-09-09T21:40:18;0.65;;;0.50;;
62475;SDS011;50739;45.670;11.936;2022-09-09T21:45:21;1.50;;;0.60;;
62475;SDS011;50739;45.670;11.936;2022-09-09T21:50:24;1.00;;;0.50;;
62475;SDS011;50739;45.670;11.936;2022-09-09T21:55:26;3.50;;;0.60;;
62475;SDS011;50739;45.670;11.936;2022-09-09T22:00:29;1.57;;;0.80;;
62475;SDS011;50739;45.670;11.936;2022-09-09T22:05:31;1.67;;;1.00;;
62475;SDS011;50739;45.670;11.936;2022-09-09T22:10:34;2.03;;;0.90;;
62475;SDS011;50739;45.670;11.936;2022-09-09T22:15:40;3.13;;;1.40;;
62475;SDS011;50739;45.670;11.936;2022-09-09T22:20:43;2.03;;;1.20;;
62475;SDS011;50739;45.670;11.936;2022-09-09T22:25:47;2.15;;;1.20;;
62475;SDS011;50739;45.670;11.936;2022-09-09T22:30:51;2.70;;;1.10;;
62475;SDS011;50739;45.670;11.936;2022-09-09T22:35:53;1.87;;;1.20;;
62475;SDS011;50739;45.670;11.936;2022-09-09T22:40:55;1.50;;;1.10;;
62475;SDS011;50739;45.670;11.936;2022-09-09T22:45:58;3.17;;;1.50;;
62475;SDS011;50739;45.670;11.936;2022-09-09T22:51:01;1.67;;;1.20;;
62475;SDS011;50739;45.670;11.936;2022-09-09T22:56:04;2.15;;;1.40;;
62475;SDS011;50739;45.670;11.936;2022-09-09T23:01:10;3.45;;;1.48;;
62475;SDS011;50739;45.670;11.936;2022-09-09T23:06:14;2.72;;;1.35;;
62475;SDS011;50739;45.670;11.936;2022-09-09T23:11:19;1.60;;;1.30;;
62475;SDS011;50739;45.670;11.936;2022-09-09T23:16:23;2.13;;;1.33;;
62475;SDS011;50739;45.670;11.936;2022-09-09T23:21:27;2.47;;;1.60;;
62475;SDS011;50739;45.670;11.936;2022-09-09T23:26:30;2.78;;;1.63;;
62475;SDS011;50739;45.670;11.936;2022-09-09T23:31:33;4.10;;;1.60;;
62475;SDS011;50739;45.670;11.936;2022-09-09T23:36:36;3.73;;;1.60;;
62475;SDS011;50739;45.670;11.936;2022-09-09T23:41:38;2.38;;;1.30;;
62475;SDS011;50739;45.670;11.936;2022-09-09T23:46:42;1.45;;;1.30;;
62475;SDS011;50739;45.670;11.936;2022-09-09T23:51:43;2.43;;;1.60;;
62475;SDS011;50739;45.670;11.936;2022-09-09T23:56:48;4.07;;;1.93;;
